Time;durP1;ratioP1;P1;durP2;ratioP2;P2;SDS_P1;SDS_P2;PMS_P1;PMS_P2;Temp;Humidity;BMP_temperature;BMP_pressure;BME280_temperature;BME280_humidity;BME280_pressure;Samples;Min_cycle;Max_cycle;Signal;HPM_P1;HPM_P2
2022/11/11 00:01:07;;;;;;;;;12.75;11.00;;;;;12.30;64.07;102527.16;4963129;28;45265;-60
2022/11/11 00:03:32;;;;;;;;;11.25;10.75;;;;;12.27;63.90;102513.94;4962966;28;45271;-61
2022/11/11 00:06:02;;;;;;;;;17.25;11.00;;;;;12.27;63.97;102513.94;4962980;28;45623;-62
2022/11/11 00:08:28;;;;;;;;;8.50;8.00;;;;;12.29;63.86;102514.84;4962937;28;46047;-61
2022/11/11 00:10:59;;;;;;;;;10.50;9.50;;;;;12.25;63.78;102514.81;4962587;28;45397;-61
2022/11/11 00:13:24;;;;;;;;;10.25;9.75;;;;;12.23;64.03;102517.44;4963000;28;45231;-61
2022/11/11 00:15:50;;;;;;;;;13.00;10.25;;;;;12.23;63.94;102522.72;4962715;28;47109;-61
2022/11/11 00:26:27;;;;;;;;;10.00;10.00;;;;;12.11;64.13;102505.06;4962356;28;45187;-61
2022/11/11 00:28:53;;;;;;;;;14.50;10.50;;;;;12.09;64.19;102512.06;4962616;28;47045;-61
2022/11/11 00:31:18;;;;;;;;;13.00;13.00;;;;;12.11;63.96;102505.06;4961370;28;45243;-63
2022/11/11 00:33:43;;;;;;;;;13.25;11.25;;;;;12.13;63.96;102516.47;4962989;28;45216;-61
2022/11/11 00:36:09;;;;;;;;;15.75;13.25;;;;;12.07;63.95;102507.66;4961346;28;45248;-61
2022/11/11 00:38:47;;;;;;;;;10.25;10.25;;;;;12.10;64.21;102512.94;4962533;28;46053;-63
2022/11/11 00:41:17;;;;;;;;;11.00;11.00;;;;;12.09;63.95;102513.78;4962274;28;45405;-61
2022/11/11 00:43:44;;;;;;;;;12.00;11.75;;;;;12.07;64.07;102505.03;4962550;28;45194;-61
2022/11/11 00:51:39;;;;;;;;;11.75;11.75;;;;;11.96;64.31;102507.56;4962507;28;45453;-61
2022/11/11 00:54:05;;;;;;;;;12.75;11.75;;;;;11.98;64.09;102522.50;4962394;28;45191;-61
2022/11/11 00:56:30;;;;;;;;;12.00;11.75;;;;;11.95;64.19;102517.19;4962070;28;45263;-61
2022/11/11 00:58:56;;;;;;;;;11.00;8.25;;;;;11.93;64.43;102516.28;4962436;28;45305;-61
2022/11/11 01:01:21;;;;;;;;;12.50;11.00;;;;;11.95;64.05;102534.72;4962013;28;45419;-60
2022/11/11 01:03:47;;;;;;;;;11.25;9.50;;;;;11.96;64.25;102534.81;4962141;28;45535;-61
2022/11/11 01:06:12;;;;;;;;;13.75;11.50;;;;;11.93;64.14;102536.50;4961951;28;48391;-61
2022/11/11 01:08:39;;;;;;;;;12.00;10.00;;;;;11.92;63.95;102525.06;4962069;28;45319;-61
2022/11/11 01:11:15;;;;;;;;;11.25;11.25;;;;;11.94;64.10;102519.81;4961670;28;45339;-61
2022/11/11 01:13:41;;;;;;;;;11.00;11.00;;;;;11.87;64.08;102517.13;4962184;28;45316;-61
2022/11/11 01:16:11;;;;;;;;;15.00;12.00;;;;;11.92;64.11;102511.88;4961849;28;45504;-61
2022/11/11 01:18:36;;;;;;;;;10.25;8.25;;;;;11.94;63.97;102517.19;4962023;28;46452;-61
2022/11/11 01:21:06;;;;;;;;;13.25;10.75;;;;;11.94;63.88;102504.88;4961657;28;45386;-61
2022/11/11 01:23:35;;;;;;;;;13.75;13.25;;;;;11.94;64.09;102507.53;4962102;28;45242;-61
2022/11/11 01:26:03;;;;;;;;;13.00;10.50;;;;;11.91;64.17;102510.16;4961343;28;45466;-61
2022/11/11 01:28:28;;;;;;;;;9.25;9.00;;;;;11.94;64.22;102504.88;4961758;28;46066;-60
2022/11/11 01:31:00;;;;;;;;;12.00;11.00;;;;;11.95;63.81;102522.47;4961368;28;58895;-61
2022/11/11 01:33:25;;;;;;;;;18.00;14.00;;;;;11.95;64.15;102524.19;4960606;28;45435;-61
2022/11/11 01:35:51;;;;;;;;;10.50;9.50;;;;;11.94;64.02;102523.31;4961646;28;45316;-61
2022/11/11 01:38:16;;;;;;;;;13.00;11.75;;;;;11.94;63.92;102515.41;4961635;28;45394;-61
2022/11/11 01:40:46;;;;;;;;;14.00;11.75;;;;;11.94;64.22;102519.81;4961170;28;50712;-61
2022/11/11 01:43:12;;;;;;;;;11.25;9.00;;;;;11.90;64.24;102510.09;4961685;28;45180;-61
2022/11/11 01:45:45;;;;;;;;;11.25;10.25;;;;;11.91;64.21;102515.41;4961428;28;45527;-61
2022/11/11 01:51:13;;;;;;;;;11.50;11.50;;;;;11.92;64.02;102508.38;4961396;28;45275;-61
2022/11/11 01:53:38;;;;;;;;;13.25;11.25;;;;;11.90;64.11;102518.00;4961518;28;45351;-61
2022/11/11 01:56:05;;;;;;;;;11.50;10.00;;;;;11.90;64.07;102516.28;4961140;28;45308;-61
2022/11/11 01:58:30;;;;;;;;;13.00;12.25;;;;;11.89;64.17;102522.41;4960928;28;45414;-61
2022/11/11 02:00:58;;;;;;;;;13.75;12.00;;;;;11.91;63.97;102525.03;4959884;28;45454;-61
2022/11/11 02:03:27;;;;;;;;;14.00;10.00;;;;;11.90;63.80;102529.44;4961145;28;45409;-61
2022/11/11 02:05:55;;;;;;;;;13.75;10.50;;;;;11.90;63.95;102531.19;4960109;28;45456;-61
2022/11/11 02:08:31;;;;;;;;;15.75;12.25;;;;;11.91;63.81;102533.84;4961177;28;46344;-61
2022/11/11 02:16:46;;;;;;;;;13.00;9.50;;;;;11.87;63.80;102521.50;4961112;28;45286;-61
2022/11/11 02:19:12;;;;;;;;;9.75;9.75;;;;;11.86;63.93;102531.16;4960800;28;46313;-60
2022/11/11 02:21:48;;;;;;;;;12.75;9.50;;;;;11.86;64.06;102527.63;4961303;28;45430;-61
2022/11/11 02:24:20;;;;;;;;;11.00;10.25;;;;;11.83;63.99;102522.34;4961044;28;45271;-61
2022/11/11 02:26:46;;;;;;;;;12.00;11.00;;;;;11.85;63.86;102529.41;4960983;28;45481;-60
2022/11/11 02:29:16;;;;;;;;;13.75;12.25;;;;;11.83;63.96;102520.59;4961108;28;45280;-61
2022/11/11 02:31:42;;;;;;;;;12.75;10.50;;;;;11.82;63.97;102517.94;4960852;28;45394;-61
2022/11/11 02:34:07;;;;;;;;;12.00;10.00;;;;;11.83;63.81;102517.09;4961003;28;45250;-61
2022/11/11 02:36:32;;;;;;;;;11.00;10.00;;;;;11.81;63.98;102517.06;4960694;28;49627;-60
2022/11/11 02:38:58;;;;;;;;;11.75;11.50;;;;;11.78;64.13;102509.13;4960857;28;45508;-61
2022/11/11 02:44:07;;;;;;;;;9.75;9.75;;;;;11.78;63.94;102516.16;4960853;28;45501;-61
2022/11/11 02:46:33;;;;;;;;;13.75;12.00;;;;;11.76;63.89;102510.00;4962728;28;45412;-61
2022/11/11 02:48:58;;;;;;;;;10.75;10.25;;;;;11.76;63.85;102513.53;4964274;28;46395;-61
2022/11/11 02:51:24;;;;;;;;;11.75;8.75;;;;;11.77;63.81;102511.75;4964328;28;45326;-61
2022/11/11 02:53:49;;;;;;;;;10.00;9.00;;;;;11.77;63.97;102517.03;4964304;28;45688;-61
2022/11/11 02:57:05;;;;;;;;;11.25;10.75;;;;;11.76;64.15;102507.34;4962787;28;45485;-61
2022/11/11 02:59:00;;;;;;;;;12.75;11.50;;;;;11.75;63.88;102509.13;4964027;28;45327;-61
2022/11/11 03:01:25;;;;;;;;;9.00;7.75;;;;;11.75;64.00;102506.47;4963707;28;45257;-61
2022/11/11 03:03:50;;;;;;;;;11.50;11.00;;;;;11.74;63.81;102498.56;4963096;28;45418;-62
2022/11/11 03:06:16;;;;;;;;;11.00;10.00;;;;;11.73;63.86;102500.31;4962338;28;45239;-60
2022/11/11 03:08:41;;;;;;;;;10.75;8.75;;;;;11.75;63.88;102510.84;4962848;28;45186;-61
2022/11/11 03:11:06;;;;;;;;;10.25;9.50;;;;;11.74;64.02;102509.09;4963576;28;45339;-60
2022/11/11 03:13:32;;;;;;;;;13.50;10.25;;;;;11.44;63.89;102468.44;4964153;28;45248;-61
2022/11/11 03:15:57;;;;;;;;;17.50;10.50;;;;;11.63;63.85;102503.72;4962500;28;45240;-61
2022/11/11 03:18:23;;;;;;;;;10.50;8.75;;;;;11.65;64.00;102507.28;4962386;28;45908;-61
2022/11/11 03:21:03;;;;;;;;;11.75;9.50;;;;;11.66;63.96;102517.81;4962334;28;45235;-62
2022/11/11 03:23:29;;;;;;;;;13.25;12.00;;;;;11.66;64.00;102509.91;4963791;28;45496;-61
2022/11/11 03:25:54;;;;;;;;;9.75;8.75;;;;;11.67;63.95;102516.06;4963247;28;45484;-60
2022/11/11 03:28:20;;;;;;;;;13.00;10.50;;;;;11.58;63.85;102514.22;4962308;28;48443;-61
2022/11/11 03:30:48;;;;;;;;;10.75;10.00;;;;;11.65;63.85;102521.31;4963572;28;45332;-61
2022/11/11 03:33:15;;;;;;;;;13.00;9.50;;;;;11.66;63.92;102528.34;4963703;28;45284;-61
2022/11/11 03:35:41;;;;;;;;;11.75;9.00;;;;;11.54;64.05;102501.88;4962087;28;45473;-61
2022/11/11 03:38:22;;;;;;;;;14.00;11.50;;;;;11.56;64.04;102505.44;4962286;28;48456;-61
2022/11/11 03:40:52;;;;;;;;;10.25;9.75;;;;;11.58;64.01;102503.69;4961626;28;45179;-62
2022/11/11 03:43:20;;;;;;;;;11.75;11.00;;;;;11.60;64.07;102511.63;4962062;28;45323;-61
2022/11/11 03:45:46;;;;;;;;;15.50;9.75;;;;;11.57;63.90;102501.03;4961812;28;45553;-61
2022/11/11 03:48:12;;;;;;;;;12.50;11.25;;;;;11.55;64.11;102516.81;4962215;28;48313;-62
2022/11/11 03:50:38;;;;;;;;;8.75;8.00;;;;;11.50;64.22;102508.88;4961724;28;45296;-61
2022/11/11 03:53:04;;;;;;;;;17.75;12.50;;;;;11.48;64.04;102494.81;4963407;28;45172;-62
2022/11/11 03:55:33;;;;;;;;;9.25;8.00;;;;;11.57;64.10;102511.56;4961632;28;45296;-61
2022/11/11 03:58:01;;;;;;;;;14.75;11.50;;;;;11.51;64.09;102510.63;4960613;28;46580;-62
2022/11/11 04:00:28;;;;;;;;;13.00;11.00;;;;;11.52;63.96;102516.78;4944590;28;45315;-62
2022/11/11 04:11:35;;;;;;;;;9.50;9.50;;;;;11.54;64.28;102538.75;4946503;28;45259;-61
2022/11/11 04:16:49;;;;;;;;;8.50;8.50;;;;;11.61;64.21;102532.69;4959801;28;45176;-61
2022/11/11 04:21:59;;;;;;;;;14.25;9.50;;;;;11.61;64.18;102531.78;4962692;28;45397;-62
2022/11/11 04:27:15;;;;;;;;;13.75;12.00;;;;;11.58;64.30;102521.25;4942520;28;45414;-62
2022/11/11 04:29:46;;;;;;;;;10.00;10.00;;;;;11.60;64.46;102525.66;4948583;28;45485;-61
2022/11/11 04:35:02;;;;;;;;;11.00;10.25;;;;;11.62;64.31;102539.72;4962842;28;45472;-62
2022/11/11 04:37:32;;;;;;;;;10.50;9.25;;;;;11.61;64.26;102537.94;4962526;28;45461;-61
2022/11/11 04:42:41;;;;;;;;;11.00;9.00;;;;;11.65;64.28;102530.97;4962271;28;45424;-61
2022/11/11 04:48:04;;;;;;;;;8.50;8.50;;;;;11.66;64.25;102530.06;4962718;28;45456;-61
2022/11/11 04:50:41;;;;;;;;;8.25;8.25;;;;;11.64;64.26;102521.31;4962188;28;45618;-61
2022/11/11 04:53:09;;;;;;;;;7.50;6.25;;;;;11.60;64.34;102512.47;4962179;28;45248;-61
2022/11/11 04:58:21;;;;;;;;;7.25;6.75;;;;;11.65;64.27;102523.06;4962360;28;45374;-61
2022/11/11 05:00:46;;;;;;;;;7.00;7.00;;;;;11.60;64.29;102520.38;4960856;28;47972;-61
2022/11/11 05:03:17;;;;;;;;;13.00;8.50;;;;;11.65;64.23;102523.06;4961764;28;45441;-61
2022/11/11 05:09:00;;;;;;;;;6.50;6.00;;;;;11.69;64.24;102519.59;4961782;28;45598;-62
2022/11/11 05:11:31;;;;;;;;;10.25;7.75;;;;;11.69;64.12;102531.00;4961621;28;46160;-61
2022/11/11 05:22:33;;;;;;;;;9.00;6.75;;;;;11.73;64.13;102523.13;4961728;28;45750;-61
2022/11/11 05:27:43;;;;;;;;;12.50;8.50;;;;;11.70;64.25;102524.88;4961744;28;45157;-62
2022/11/11 05:30:11;;;;;;;;;7.50;7.00;;;;;11.71;64.15;102531.91;4961763;28;45487;-62
2022/11/11 05:32:38;;;;;;;;;9.25;9.00;;;;;11.75;64.24;102531.91;4961652;28;46035;-61
2022/11/11 05:35:04;;;;;;;;;4.75;3.00;;;;;11.73;64.07;102528.41;4961804;28;45331;-61
2022/11/11 05:37:29;;;;;;;;;8.00;8.00;;;;;11.74;64.15;102535.44;4961777;28;45332;-61
2022/11/11 05:39:54;;;;;;;;;8.25;5.75;;;;;11.71;64.35;102534.53;4961599;28;45469;-62
2022/11/11 05:42:19;;;;;;;;;9.00;8.50;;;;;11.70;64.17;102531.91;4961199;28;49415;-62
2022/11/11 05:44:45;;;;;;;;;5.50;5.50;;;;;11.69;64.27;102530.13;4961859;28;45338;-61
2022/11/11 05:47:10;;;;;;;;;7.00;7.00;;;;;11.68;63.99;102533.63;4960488;28;45442;-62
2022/11/11 05:49:36;;;;;;;;;9.00;8.00;;;;;11.68;64.07;102525.72;4961780;28;45238;-62
2022/11/11 05:52:02;;;;;;;;;8.00;8.00;;;;;11.69;64.13;102530.13;4961466;28;45258;-61
2022/11/11 05:54:27;;;;;;;;;9.75;8.25;;;;;11.68;64.30;102518.72;4961436;28;45230;-62
2022/11/11 05:56:53;;;;;;;;;8.00;7.25;;;;;11.69;64.04;102530.13;4960968;28;47391;-62
2022/11/11 05:59:18;;;;;;;;;9.75;9.50;;;;;11.70;64.02;102534.53;4960180;28;45678;-62
2022/11/11 06:01:43;;;;;;;;;8.25;7.00;;;;;11.70;64.03;102531.91;4961138;28;46278;-62
2022/11/11 06:04:09;;;;;;;;;10.50;10.00;;;;;11.65;64.03;102515.16;4961373;28;45296;-62
2022/11/11 06:06:35;;;;;;;;;7.25;7.25;;;;;11.68;63.92;102521.34;4960669;28;45437;-62
2022/11/11 06:09:01;;;;;;;;;10.00;9.00;;;;;11.68;63.91;102538.88;4960050;28;45480;-62
2022/11/11 06:11:27;;;;;;;;;9.00;8.00;;;;;11.64;64.05;102535.34;4959570;28;47137;-61
2022/11/11 06:13:52;;;;;;;;;7.75;7.75;;;;;11.65;64.07;102537.09;4961277;28;45410;-61
2022/11/11 06:16:18;;;;;;;;;7.25;6.25;;;;;11.65;63.94;102531.84;4961568;28;45321;-61
2022/11/11 06:18:43;;;;;;;;;7.00;7.00;;;;;11.59;64.06;102539.69;4961169;28;45374;-61
2022/11/11 06:21:09;;;;;;;;;7.25;7.25;;;;;11.62;64.08;102547.63;4958929;28;46178;-61
2022/11/11 06:23:34;;;;;;;;;10.50;9.50;;;;;11.59;63.97;102539.69;4961087;28;45347;-61
2022/11/11 06:26:11;;;;;;;;;10.00;8.00;;;;;11.59;63.99;102549.34;4960880;28;45266;-61
2022/11/11 06:28:45;;;;;;;;;8.75;7.00;;;;;11.58;64.07;102553.69;4961182;28;45239;-61
2022/11/11 06:31:13;;;;;;;;;9.00;6.25;;;;;11.57;64.10;102557.19;4960870;28;45382;-61
2022/11/11 06:33:39;;;;;;;;;10.00;9.00;;;;;11.55;64.19;102561.59;4960972;28;45312;-61
2022/11/11 06:36:06;;;;;;;;;9.00;9.00;;;;;11.54;64.18;102568.59;4960911;28;45386;-61
2022/11/11 06:38:31;;;;;;;;;8.00;6.00;;;;;11.53;64.09;102558.03;4960922;28;45440;-61
2022/11/11 06:40:57;;;;;;;;;9.00;7.00;;;;;11.51;64.17;102560.66;4960372;28;45290;-62
2022/11/11 06:43:23;;;;;;;;;8.75;8.75;;;;;11.48;64.12;102567.63;4961006;28;45333;-61
2022/11/11 06:45:53;;;;;;;;;9.75;8.25;;;;;11.46;64.27;102569.38;4960983;28;45318;-61
2022/11/11 06:48:19;;;;;;;;;10.75;10.75;;;;;11.46;64.15;102570.25;4960890;28;45547;-61
2022/11/11 06:50:45;;;;;;;;;9.75;8.00;;;;;11.44;64.43;102569.34;4960541;28;45256;-61
2022/11/11 06:53:13;;;;;;;;;9.00;8.00;;;;;11.45;64.15;102559.72;4959314;28;45275;-61
2022/11/11 06:55:38;;;;;;;;;7.25;6.00;;;;;11.43;64.25;102574.59;4960533;28;45366;-62
2022/11/11 06:58:12;;;;;;;;;8.00;7.50;;;;;11.36;64.24;102569.28;4960710;28;45553;-61
2022/11/11 07:00:39;;;;;;;;;9.25;8.00;;;;;11.39;64.34;102573.69;4960730;28;45431;-61
2022/11/11 07:03:05;;;;;;;;;7.50;6.50;;;;;11.41;64.15;102571.97;4960241;28;45424;-61
2022/11/11 07:05:32;;;;;;;;;12.00;8.00;;;;;11.38;64.17;102571.91;4960147;28;45332;-61
2022/11/11 07:08:01;;;;;;;;;9.00;9.00;;;;;11.43;64.20;102579.88;4960614;28;45419;-62
2022/11/11 07:10:26;;;;;;;;;9.75;7.50;;;;;11.42;64.07;102580.72;4960314;28;45398;-61
2022/11/11 07:12:51;;;;;;;;;9.50;8.25;;;;;11.41;64.04;102578.97;4960257;28;45346;-61
2022/11/11 07:15:17;;;;;;;;;9.25;8.50;;;;;11.43;64.14;102580.75;4960604;28;45445;-61
2022/11/11 07:17:42;;;;;;;;;10.75;10.75;;;;;11.43;64.07;102574.59;4960548;28;45358;-61
2022/11/11 07:20:08;;;;;;;;;9.00;8.75;;;;;11.42;64.17;102563.22;4960338;28;45497;-61
2022/11/11 07:22:37;;;;;;;;;11.50;10.50;;;;;11.40;64.36;102564.94;4960317;28;45349;-61
2022/11/11 07:25:04;;;;;;;;;9.25;9.00;;;;;11.42;64.17;102568.47;4960258;28;45375;-60
2022/11/11 07:27:29;;;;;;;;;9.25;8.00;;;;;11.39;64.22;102568.41;4960096;28;45387;-60
2022/11/11 07:29:55;;;;;;;;;12.75;10.00;;;;;11.39;64.00;102565.78;4960233;28;45809;-61
2022/11/11 07:32:20;;;;;;;;;8.50;8.25;;;;;11.42;64.24;102562.31;4960530;28;45322;-62
2022/11/11 07:34:45;;;;;;;;;8.50;7.75;;;;;11.38;64.22;102567.56;4963865;28;45363;-61
2022/11/11 07:37:11;;;;;;;;;8.00;7.25;;;;;11.37;64.37;102559.59;4963628;28;45421;-61
2022/11/11 07:39:36;;;;;;;;;9.00;9.00;;;;;11.36;64.47;102571.91;4963488;28;47215;-61
2022/11/11 07:42:01;;;;;;;;;8.25;8.00;;;;;11.38;64.19;102570.19;4963353;28;45270;-61
2022/11/11 07:44:27;;;;;;;;;9.00;7.75;;;;;11.35;64.33;102562.22;4963604;28;45468;-64
2022/11/11 07:46:52;;;;;;;;;8.50;8.00;;;;;11.39;63.98;102571.06;4962019;28;45506;-61
2022/11/11 07:49:18;;;;;;;;;7.25;7.00;;;;;11.40;64.24;102574.59;4963412;28;46247;-61
2022/11/11 07:51:43;;;;;;;;;10.00;8.00;;;;;11.41;64.34;102564.06;4963153;28;45346;-60
2022/11/11 07:54:09;;;;;;;;;8.50;8.50;;;;;11.41;64.61;102566.69;4962161;28;45313;-61
2022/11/11 07:56:34;;;;;;;;;9.25;9.00;;;;;11.42;64.22;102568.47;4963024;28;45440;-61
2022/11/11 07:59:00;;;;;;;;;12.75;9.75;;;;;11.43;64.40;102569.34;4963408;28;45299;-61
2022/11/11 08:01:25;;;;;;;;;9.75;9.00;;;;;11.44;64.35;102566.72;4963030;28;45370;-60
2022/11/11 08:03:50;;;;;;;;;11.25;10.00;;;;;11.43;64.51;102564.94;4963172;28;45283;-60
2022/11/11 08:06:21;;;;;;;;;14.50;11.00;;;;;11.46;64.41;102570.25;4963117;28;45271;-60
2022/11/11 08:08:47;;;;;;;;;12.75;11.00;;;;;11.48;64.60;102572.91;4961820;28;47146;-61
2022/11/11 08:11:13;;;;;;;;;10.00;9.25;;;;;11.47;64.38;102568.50;4961251;28;45358;-60
2022/11/11 08:13:42;;;;;;;;;9.00;7.50;;;;;11.51;64.49;102571.19;4963150;28;45621;-60
2022/11/11 08:16:09;;;;;;;;;10.25;9.00;;;;;11.54;64.31;102578.25;4961522;28;45595;-60
2022/11/11 08:18:34;;;;;;;;;13.00;11.50;;;;;11.54;64.89;102578.25;4962868;28;45363;-61
2022/11/11 08:21:01;;;;;;;;;13.00;12.00;;;;;11.55;64.50;102569.47;4962453;28;45489;-61
2022/11/11 08:23:32;;;;;;;;;12.00;11.25;;;;;11.55;64.57;102569.47;4962895;28;45349;-61
2022/11/11 08:26:03;;;;;;;;;12.50;11.00;;;;;11.57;64.50;102567.72;4962410;28;45230;-61
2022/11/11 08:28:30;;;;;;;;;14.75;11.25;;;;;11.58;64.47;102569.50;4962838;28;46672;-61
2022/11/11 08:30:58;;;;;;;;;16.75;13.00;;;;;11.58;64.57;102569.50;4962540;28;45336;-61
2022/11/11 08:33:24;;;;;;;;;10.25;9.25;;;;;11.57;64.76;102567.72;4962886;28;45231;-61
2022/11/11 08:35:49;;;;;;;;;11.50;11.50;;;;;11.60;64.63;102572.19;4962615;28;45525;-60
2022/11/11 08:38:15;;;;;;;;;12.25;10.75;;;;;11.58;64.40;102564.25;4962570;28;45979;-61
2022/11/11 08:40:40;;;;;;;;;14.50;13.00;;;;;11.59;64.60;102571.28;4962189;28;45262;-60
2022/11/11 08:43:06;;;;;;;;;16.00;14.50;;;;;11.61;64.56;102568.66;4962124;28;45642;-60
2022/11/11 08:45:31;;;;;;;;;11.00;9.00;;;;;11.61;64.56;102580.09;4962347;28;45700;-61
2022/11/11 08:47:56;;;;;;;;;15.75;11.50;;;;;11.59;64.62;102584.44;4962632;28;45449;-61
2022/11/11 08:50:22;;;;;;;;;14.25;11.75;;;;;11.56;64.75;102589.69;4962405;28;45300;-62
2022/11/11 08:52:49;;;;;;;;;11.25;10.00;;;;;11.58;64.61;102595.84;4962642;28;45263;-63
2022/11/11 08:55:15;;;;;;;;;10.75;10.75;;;;;11.57;64.63;102604.59;4962142;28;45466;-62
2022/11/11 08:57:41;;;;;;;;;11.25;11.25;;;;;11.59;64.71;102602.88;4962150;28;46288;-62
2022/11/11 09:00:07;;;;;;;;;11.50;11.00;;;;;11.58;64.78;102598.47;4962142;28;45367;-62
2022/11/11 09:02:33;;;;;;;;;12.25;9.25;;;;;11.60;64.70;102598.50;4962194;28;45370;-62
2022/11/11 09:04:58;;;;;;;;;14.25;11.25;;;;;11.61;64.82;102606.41;4961984;28;45560;-62
2022/11/11 09:07:24;;;;;;;;;10.50;9.75;;;;;11.59;64.65;102592.34;4962232;28;47222;-60
2022/11/11 09:09:49;;;;;;;;;15.25;11.25;;;;;11.61;64.61;102606.41;4961897;28;45274;-63
2022/11/11 09:12:14;;;;;;;;;12.25;11.00;;;;;11.59;64.76;102610.78;4962157;28;45264;-60
2022/11/11 09:14:40;;;;;;;;;18.25;12.25;;;;;11.63;64.46;102612.56;4960769;28;45267;-60
2022/11/11 09:17:06;;;;;;;;;10.50;10.50;;;;;11.64;64.65;102603.81;4961611;28;52672;-60
2022/11/11 09:19:31;;;;;;;;;15.00;14.00;;;;;11.65;64.49;102602.94;4961942;28;45512;-60
2022/11/11 09:21:56;;;;;;;;;13.25;11.75;;;;;11.65;64.63;102612.59;4962004;28;45360;-60
2022/11/11 09:24:22;;;;;;;;;15.25;12.25;;;;;11.65;64.63;102612.59;4961696;28;45466;-60
2022/11/11 09:26:48;;;;;;;;;12.75;12.75;;;;;11.64;64.72;102606.44;4961768;28;46151;-62
2022/11/11 09:29:13;;;;;;;;;19.00;16.50;;;;;11.65;64.70;102600.31;4961753;28;45339;-61
2022/11/11 09:31:39;;;;;;;;;16.25;10.75;;;;;11.67;64.70;102606.50;4962014;28;45342;-61
2022/11/11 09:34:05;;;;;;;;;12.75;10.00;;;;;11.63;64.55;102602.03;4961684;28;45531;-61
2022/11/11 09:36:31;;;;;;;;;11.00;10.50;;;;;11.64;64.57;102602.94;4961863;28;46988;-61
2022/11/11 09:38:57;;;;;;;;;13.50;11.50;;;;;11.64;64.67;102611.72;4961186;28;45331;-61
2022/11/11 09:41:48;;;;;;;;;12.25;9.50;;;;;11.66;64.47;102614.34;4961739;28;45438;-61
2022/11/11 09:44:43;;;;;;;;;11.25;10.75;;;;;11.67;64.62;102622.28;4961410;28;46146;-61
2022/11/11 09:47:37;;;;;;;;;10.25;9.00;;;;;11.68;64.56;102618.78;4961364;28;45429;-61
2022/11/11 09:50:24;;;;;;;;;12.25;10.50;;;;;11.68;64.51;102623.16;4961425;28;45449;-62
2022/11/11 09:53:08;;;;;;;;;10.00;10.00;;;;;11.66;64.71;102619.63;4961551;28;45406;-62
2022/11/11 09:55:48;;;;;;;;;10.50;9.00;;;;;11.68;64.52;102623.16;4958533;28;45428;-61
2022/11/11 09:58:27;;;;;;;;;10.50;10.00;;;;;11.66;64.44;102623.16;4961346;28;45577;-61
2022/11/11 10:01:07;;;;;;;;;12.50;10.75;;;;;11.68;64.66;102617.91;4959994;28;45350;-61
2022/11/11 10:03:41;;;;;;;;;9.75;9.75;;;;;11.64;64.61;102613.47;4961093;28;45311;-62
2022/11/11 10:06:17;;;;;;;;;11.50;11.50;;;;;11.64;64.57;102631.91;4961194;28;45153;-62
2022/11/11 10:09:13;;;;;;;;;10.50;9.75;;;;;11.62;64.94;102633.63;4961189;28;46294;-62
2022/11/11 10:11:46;;;;;;;;;9.75;9.75;;;;;11.67;64.43;102634.56;4961052;28;45258;-61
2022/11/11 10:14:12;;;;;;;;;13.00;10.00;;;;;11.69;64.51;102631.06;4961423;28;45300;-62
2022/11/11 10:16:53;;;;;;;;;10.50;9.25;;;;;11.71;64.43;102631.97;4960924;28;45540;-62
2022/11/11 10:19:52;;;;;;;;;14.25;13.25;;;;;11.77;64.35;102635.56;4959807;28;47096;-62
2022/11/11 10:22:33;;;;;;;;;9.75;9.50;;;;;11.74;64.36;102631.13;4960988;28;45266;-61
2022/11/11 10:25:19;;;;;;;;;12.00;10.00;;;;;11.74;64.51;102627.63;4959710;28;45322;-61
2022/11/11 10:27:48;;;;;;;;;11.75;11.00;;;;;11.80;64.37;102622.44;4960738;28;45351;-61
2022/11/11 10:30:23;;;;;;;;;14.25;13.00;;;;;11.82;64.37;102624.22;4959529;28;48233;-62
2022/11/11 10:33:01;;;;;;;;;14.25;12.50;;;;;11.85;64.31;102618.97;4960833;28;45253;-62
2022/11/11 10:35:30;;;;;;;;;13.50;11.50;;;;;11.91;64.21;102628.69;4959652;28;45272;-62
2022/11/11 10:38:25;;;;;;;;;15.00;12.00;;;;;11.94;64.36;102619.94;4960796;28;45323;-62
2022/11/11 10:40:55;;;;;;;;;11.00;10.25;;;;;11.96;64.32;102613.84;4960287;28;46541;-62
2022/11/11 10:43:22;;;;;;;;;14.50;12.00;;;;;11.99;64.36;102613.88;4960805;28;45243;-62
2022/11/11 10:46:08;;;;;;;;;9.25;9.00;;;;;12.00;64.41;102613.00;4960808;28;45533;-62
2022/11/11 10:48:40;;;;;;;;;14.00;11.25;;;;;11.99;64.50;102619.13;4960600;28;45614;-62
2022/11/11 10:51:06;;;;;;;;;13.25;11.00;;;;;12.05;64.25;102613.06;4960737;28;46207;-63
2022/11/11 10:53:47;;;;;;;;;13.75;12.25;;;;;12.09;64.40;102620.09;4960602;28;45548;-61
2022/11/11 10:56:30;;;;;;;;;14.75;13.25;;;;;12.09;64.26;102622.75;4960588;28;45251;-61
2022/11/11 10:59:08;;;;;;;;;13.00;12.50;;;;;12.12;64.23;102613.97;4960683;28;45314;-61
2022/11/11 11:01:42;;;;;;;;;15.00;13.75;;;;;12.15;64.21;102622.81;4960209;28;45288;-62
2022/11/11 11:04:21;;;;;;;;;15.75;11.75;;;;;12.22;64.11;102610.56;4960592;28;45342;-62
2022/11/11 11:06:49;;;;;;;;;15.00;13.00;;;;;12.21;64.06;102610.53;4961377;28;45389;-62
2022/11/11 11:09:23;;;;;;;;;16.25;12.50;;;;;12.32;64.20;102611.53;4963805;28;45348;-62
2022/11/11 11:11:58;;;;;;;;;11.50;11.00;;;;;12.35;64.02;102601.00;4963543;28;47107;-62
2022/11/11 11:14:30;;;;;;;;;12.50;11.75;;;;;12.40;64.01;102603.66;4963821;28;45388;-62
2022/11/11 11:17:04;;;;;;;;;12.75;10.50;;;;;12.43;64.00;102603.72;4964096;28;45637;-62
2022/11/11 11:19:29;;;;;;;;;11.50;10.25;;;;;12.45;64.03;102594.03;4963678;28;45249;-61
2022/11/11 11:21:57;;;;;;;;;12.00;11.25;;;;;12.53;64.40;102597.63;4963484;28;49968;-62
2022/11/11 11:24:27;;;;;;;;;10.00;10.00;;;;;12.56;63.91;102597.63;4963351;28;45361;-62
2022/11/11 11:26:56;;;;;;;;;12.50;11.75;;;;;12.59;63.91;102588.88;4963651;28;45346;-62
2022/11/11 11:29:38;;;;;;;;;14.00;12.50;;;;;12.67;64.06;102582.75;4963511;28;45378;-62
2022/11/11 11:32:30;;;;;;;;;13.75;13.00;;;;;12.73;63.72;102586.31;4963394;28;46979;-62
2022/11/11 11:34:56;;;;;;;;;12.00;11.25;;;;;12.78;63.57;102597.78;4963588;28;45327;-62
2022/11/11 11:37:26;;;;;;;;;15.00;12.75;;;;;12.83;63.61;102585.53;4963697;28;45502;-62
2022/11/11 11:40:03;;;;;;;;;13.50;12.75;;;;;12.90;63.80;102586.44;4963425;28;45463;-62
2022/11/11 11:42:31;;;;;;;;;13.75;10.50;;;;;12.97;63.65;102575.03;4963312;28;45322;-62
2022/11/11 11:44:56;;;;;;;;;12.50;11.25;;;;;13.03;63.52;102575.06;4963428;28;45331;-62
2022/11/11 11:47:30;;;;;;;;;15.75;15.00;;;;;13.10;63.62;102571.56;4963372;28;45228;-62
2022/11/11 11:50:25;;;;;;;;;11.00;11.00;;;;;13.16;63.86;102573.38;4962161;28;45530;-62
2022/11/11 11:52:56;;;;;;;;;14.25;14.25;;;;;13.23;63.39;102569.88;4963227;28;45478;-62
2022/11/11 11:55:27;;;;;;;;;13.50;11.25;;;;;13.30;63.96;102570.78;4962976;28;45517;-62
2022/11/11 11:57:52;;;;;;;;;14.75;13.25;;;;;13.37;62.92;102562.03;4963487;28;45286;-62
2022/11/11 12:00:22;;;;;;;;;14.25;12.75;;;;;13.46;63.70;102558.53;4963009;28;45227;-62
2022/11/11 12:02:47;;;;;;;;;13.00;11.50;;;;;13.53;63.07;102556.78;4962954;28;45369;-62
2022/11/11 12:05:42;;;;;;;;;13.50;12.50;;;;;13.59;63.43;102565.59;4962432;28;45330;-62
2022/11/11 12:08:35;;;;;;;;;14.25;12.75;;;;;13.69;63.56;102557.72;4958390;28;45311;-62
2022/11/11 12:11:25;;;;;;;;;11.75;11.75;;;;;13.82;63.15;102562.09;4962795;28;45271;-62
2022/11/11 12:14:04;;;;;;;;;15.00;14.25;;;;;13.95;63.34;102553.31;4962951;28;45407;-62
2022/11/11 12:16:49;;;;;;;;;13.25;13.25;;;;;14.06;63.34;102549.78;4962779;28;45466;-62
2022/11/11 12:19:33;;;;;;;;;16.00;13.25;;;;;14.20;63.51;102550.69;4961888;28;45283;-63
2022/11/11 12:22:26;;;;;;;;;13.75;12.00;;;;;14.32;63.35;102551.56;4962869;28;45459;-62
2022/11/11 12:24:56;;;;;;;;;26.25;25.50;;;;;14.45;63.13;102542.72;4962415;28;46128;-61
2022/11/11 12:27:39;;;;;;;;;11.50;10.00;;;;;14.53;63.27;102540.94;4962678;28;45401;-61
2022/11/11 12:30:13;;;;;;;;;11.50;11.00;;;;;14.70;63.36;102537.41;4962996;28;45449;-61
2022/11/11 12:32:50;;;;;;;;;12.25;10.75;;;;;14.77;62.99;102529.44;4962702;28;45390;-61